Azusa, CA

7:56 AM PDT on October 31, 2014 (GMT -0700)
Mountain Cove Azusa Real Estate | Change Station
CLOSE
Current Station
Personal Weather Station
Location: By Dolf in AZUSA, CA
Elevation: 686 ft
Nearby Weather Stations
Active Advisory: Special Statement

Elev 686 ft 34.15 °N, 117.91 °W | Updated 2 seconds ago

Overcast
Overcast
55.1 °F
Feels Like 55.1 °F
N
1.0
Wind Variable Wind from East
Gusts 0.0 mph

Today
High -- | Low -- °F
--% Chance of Precip.
Yesterday
High -- | Low -- °F
Precip. -- in
7:10 AM 5:59 PM
First Quarter, 56% visible
Pressure 29.99 in
Visibility 4.0 miles
Clouds Mostly Cloudy 300 ft
Overcast 1000 ft
Dew Point 44 °F
Humidity 65%
Rainfall 0.00 in
Snow Depth Not available.
UV 0.0 out of 12
Pollen 3.10 out of 12
Air Quality Not available.
Flu Activity Not available.
METAR KPOC 311347Z 00000KT 4SM BR BKN003 OVC010 14/12 A2999

More Conditions Fewer Conditions

Pressure 29.99 in
Visibility 4.0 miles
Clouds Mostly Cloudy 300 ft
Overcast 1000 ft
Dew Point 44 °F
Humidity 65%
Rainfall 0.00 in
Snow Depth Not available.
UV 0.0 out of 12
Pollen 3.10 out of 12
Air Quality Not available.
Flu Activity Not available.
METAR KPOC 311347Z 00000KT 4SM BR BKN003 OVC010 14/12 A2999

More Conditions Fewer Conditions

10-Day Weather Forecast

Almanac

Astronomy

Oct. 31, 2014 Rise Set
Actual Time
Civil Twilight
Nautical Twilight
Astronomical Twilight
Moon
Length of Visible Light
Length of Day
Tomorrow will be .
, % of the Moon is Illuminated

Today's Extremes

State Highs State Lows

Community

WunderPhotos

Upload Photos

1,766,625 photos uploaded!

WunderBlogs® & News

Nearby

Air Quality

  Air Quality AQ Index Pollutant
Not available.

Snow Depth

Station Depth Elevation

Earthquake Activity

City Distance Mag. Time & Date
Minimum magnitude displayed is 2.5.

Coastal Water Temperatures

Place Temperature

Nearby Weather Stations